WIC weather

Wick Airport
Wick, Scotland, United Kingdom

Public forecast

Using degrees Celsius for public forecast. Weather courtesy of forecast.io.

Current aviation weather report (METAR) for Wick Airport

Retrieved 2019/10/15 07:20 UTC (6 minutes ago):

EGPC 150720Z 14012KT 9999 SCT012 11/09 Q1004

Closest aviation forecast (TAF) to Wick Airport

Closest forecast is RAF Lossiemouth, 45.9 nm (85.0 km) S. Retrieved 2019/10/15 09:37 UTC (0 seconds ago):

TAF EGQS 150721Z 1509/1603 13005KT 9999 FEW020 TEMPO 1509/1522 SCT020 PROB30 TEMPO 1509/1513 SCT012 PROB40 TEMPO 1512/1522 4500 -SHRA SCT006 BKN012